Time;durP1;ratioP1;P1;durP2;ratioP2;P2;SDS_P1;SDS_P2;PMS_P1;PMS_P2;Temp;Humidity;BMP_temperature;BMP_pressure;BME280_temperature;BME280_humidity;BME280_pressure;Samples;Min_cycle;Max_cycle;Signal;HPM_P1;HPM_P2
2023/03/24 00:02:07;;;;;;;5.63;2.95;;;;;;;;;;4990326;28;20023;-70
2023/03/24 00:04:34;;;;;;;6.30;3.22;;;;;;;;;;4990343;28;20084;-71
2023/03/24 00:07:03;;;;;;;6.22;3.08;;;;;;;;;;4990235;28;20084;-70
2023/03/24 00:09:29;;;;;;;6.30;2.90;;;;;;;;;;4990176;28;20031;-69
2023/03/24 00:11:55;;;;;;;5.60;2.70;;;;;;;;;;4990209;28;20698;-70
2023/03/24 00:14:22;;;;;;;5.70;3.10;;;;;;;;;;4990353;28;20490;-70
2023/03/24 00:16:48;;;;;;;4.60;2.70;;;;;;;;;;4990501;28;20033;-70
2023/03/24 00:19:15;;;;;;;6.25;2.75;;;;;;;;;;4990363;28;20027;-69
2023/03/24 00:21:41;;;;;;;6.85;2.75;;;;;;;;;;4972338;28;20049;-69
2023/03/24 00:24:07;;;;;;;4.65;2.55;;;;;;;;;;4990406;28;20528;-70
2023/03/24 00:26:36;;;;;;;4.65;2.60;;;;;;;;;;4990151;28;20490;-70
2023/03/24 00:29:03;;;;;;;3.85;2.50;;;;;;;;;;4990533;28;20128;-72
2023/03/24 00:31:29;;;;;;;4.93;2.50;;;;;;;;;;4995338;28;20026;-70
2023/03/24 00:33:55;;;;;;;4.68;2.40;;;;;;;;;;4996259;28;20088;-70
2023/03/24 00:36:23;;;;;;;3.13;2.05;;;;;;;;;;4993685;28;20034;-69
2023/03/24 00:38:49;;;;;;;5.80;2.58;;;;;;;;;;4993907;28;20033;-71
2023/03/24 00:41:18;;;;;;;3.05;2.15;;;;;;;;;;4993440;28;20026;-71
2023/03/24 00:43:45;;;;;;;3.55;2.20;;;;;;;;;;4993654;28;20026;-70
2023/03/24 00:46:12;;;;;;;4.45;2.22;;;;;;;;;;4993492;28;20105;-71
2023/03/24 00:48:40;;;;;;;3.15;2.03;;;;;;;;;;4993484;28;20081;-69
2023/03/24 00:51:09;;;;;;;3.03;2.05;;;;;;;;;;4993407;28;20034;-70
2023/03/24 00:53:36;;;;;;;4.65;2.33;;;;;;;;;;4993291;28;20046;-72
2023/03/24 00:56:02;;;;;;;3.03;2.00;;;;;;;;;;4993506;28;20560;-71
2023/03/24 00:58:28;;;;;;;3.35;1.98;;;;;;;;;;4993346;28;20026;-70
2023/03/24 01:00:56;;;;;;;3.47;1.90;;;;;;;;;;4993189;28;20076;-71
2023/03/24 01:03:26;;;;;;;3.67;2.17;;;;;;;;;;4992915;28;20030;-70
2023/03/24 01:06:00;;;;;;;4.32;2.03;;;;;;;;;;4993216;28;20038;-70
2023/03/24 01:08:27;;;;;;;3.35;2.05;;;;;;;;;;4993250;28;20596;-70
2023/03/24 01:10:53;;;;;;;4.00;2.28;;;;;;;;;;4993317;28;20030;-71
2023/03/24 01:13:24;;;;;;;4.10;1.98;;;;;;;;;;4993000;28;20093;-71
2023/03/24 01:15:50;;;;;;;4.22;2.10;;;;;;;;;;4992954;28;20058;-69
2023/03/24 01:18:16;;;;;;;3.90;2.00;;;;;;;;;;4992889;28;20052;-71
2023/03/24 01:20:44;;;;;;;4.18;2.22;;;;;;;;;;4992798;28;20042;-71
2023/03/24 01:23:12;;;;;;;4.40;2.15;;;;;;;;;;4992760;28;20026;-73
2023/03/24 01:25:37;;;;;;;4.43;2.00;;;;;;;;;;4992987;28;20045;-71
2023/03/24 01:28:03;;;;;;;5.60;1.92;;;;;;;;;;4992674;28;20393;-71
2023/03/24 01:30:29;;;;;;;3.38;1.75;;;;;;;;;;4992917;28;20034;-70
2023/03/24 01:32:55;;;;;;;3.55;1.92;;;;;;;;;;4992689;28;20037;-70
2023/03/24 01:35:24;;;;;;;3.00;1.80;;;;;;;;;;4992606;28;20493;-71
2023/03/24 01:37:50;;;;;;;3.70;1.60;;;;;;;;;;4992366;28;20556;-70
2023/03/24 01:40:20;;;;;;;2.67;1.80;;;;;;;;;;4992443;28;20034;-70
2023/03/24 01:42:45;;;;;;;3.33;1.83;;;;;;;;;;4991935;28;20026;-70
2023/03/24 01:45:39;;;;;;;2.55;1.70;;;;;;;;;;4992481;28;20034;-70
2023/03/24 01:48:10;;;;;;;2.65;1.73;;;;;;;;;;4992574;28;20022;-71
2023/03/24 01:50:36;;;;;;;3.53;1.60;;;;;;;;;;4992320;28;20018;-72
2023/03/24 01:53:02;;;;;;;2.80;1.60;;;;;;;;;;4991828;28;20073;-70
2023/03/24 01:55:30;;;;;;;2.88;1.40;;;;;;;;;;4992142;28;20056;-70
2023/03/24 01:57:58;;;;;;;2.42;1.40;;;;;;;;;;4992136;28;20023;-70
2023/03/24 02:00:24;;;;;;;2.10;1.30;;;;;;;;;;4992184;28;20026;-70
2023/03/24 02:02:57;;;;;;;2.88;1.40;;;;;;;;;;4991902;28;20038;-71
2023/03/24 02:05:27;;;;;;;2.88;1.50;;;;;;;;;;4992157;28;20080;-70
2023/03/24 02:08:27;;;;;;;2.28;1.38;;;;;;;;;;4991865;28;20040;-70
2023/03/24 02:10:54;;;;;;;3.65;1.63;;;;;;;;;;4951472;28;20049;-70
2023/03/24 02:13:19;;;;;;;2.65;1.50;;;;;;;;;;4991777;28;20034;-69
2023/03/24 02:15:54;;;;;;;3.60;1.70;;;;;;;;;;4991965;28;20482;-68
2023/03/24 02:18:32;;;;;;;2.75;1.35;;;;;;;;;;4994085;28;20027;-70
2023/03/24 02:21:00;;;;;;;3.88;1.90;;;;;;;;;;4991806;28;20092;-71
2023/03/24 02:23:44;;;;;;;4.93;1.88;;;;;;;;;;4991748;28;20398;-70
2023/03/24 02:26:31;;;;;;;3.17;1.60;;;;;;;;;;4974229;28;20080;-70
2023/03/24 02:29:24;;;;;;;3.25;1.70;;;;;;;;;;4991550;28;20026;-71
2023/03/24 02:32:17;;;;;;;3.60;1.92;;;;;;;;;;4991447;28;20077;-70
2023/03/24 02:35:07;;;;;;;3.58;1.90;;;;;;;;;;4991543;28;20042;-70
2023/03/24 02:38:04;;;;;;;3.53;2.00;;;;;;;;;;4991514;28;20528;-70
2023/03/24 02:40:49;;;;;;;3.95;1.90;;;;;;;;;;4965803;28;20038;-71
2023/03/24 02:43:35;;;;;;;3.47;1.98;;;;;;;;;;4991266;28;20027;-71
2023/03/24 02:46:12;;;;;;;4.20;2.00;;;;;;;;;;4991411;28;20030;-70
2023/03/24 02:49:08;;;;;;;3.65;2.00;;;;;;;;;;4991226;28;20477;-70
2023/03/24 02:51:39;;;;;;;3.33;2.05;;;;;;;;;;4991150;28;20030;-71
2023/03/24 02:54:29;;;;;;;4.15;1.95;;;;;;;;;;4972464;28;20046;-70
2023/03/24 02:57:14;;;;;;;4.23;2.00;;;;;;;;;;4991326;28;20084;-70
2023/03/24 02:59:45;;;;;;;4.00;1.80;;;;;;;;;;4991150;28;20298;-71
2023/03/24 03:02:17;;;;;;;4.32;1.95;;;;;;;;;;4991015;28;20494;-70
2023/03/24 03:05:12;;;;;;;4.03;2.30;;;;;;;;;;4973344;28;20032;-70
2023/03/24 03:07:40;;;;;;;4.97;2.20;;;;;;;;;;4985759;28;20039;-69
2023/03/24 03:10:16;;;;;;;5.70;2.40;;;;;;;;;;4990892;28;20022;-69
2023/03/24 03:12:47;;;;;;;4.82;1.92;;;;;;;;;;4991065;28;20043;-69
2023/03/24 03:15:26;;;;;;;4.80;2.15;;;;;;;;;;4993065;28;20034;-70
2023/03/24 03:17:58;;;;;;;3.88;2.00;;;;;;;;;;4991126;28;20066;-70
2023/03/24 03:20:29;;;;;;;4.15;2.10;;;;;;;;;;4990836;28;20552;-70
2023/03/24 03:23:03;;;;;;;4.22;2.15;;;;;;;;;;4990700;28;20117;-70
2023/03/24 03:25:34;;;;;;;4.68;2.17;;;;;;;;;;4990889;28;20093;-70
2023/03/24 03:28:03;;;;;;;4.95;2.28;;;;;;;;;;4991067;28;20031;-70
2023/03/24 03:30:38;;;;;;;5.43;2.33;;;;;;;;;;4990870;28;20022;-70
2023/03/24 03:33:32;;;;;;;3.92;2.15;;;;;;;;;;4990789;28;20088;-69
2023/03/24 03:36:27;;;;;;;4.35;2.33;;;;;;;;;;4991621;28;20077;-71
2023/03/24 03:39:08;;;;;;;2.90;1.83;;;;;;;;;;4990509;28;20521;-70
2023/03/24 03:41:34;;;;;;;5.32;2.25;;;;;;;;;;4990540;28;20089;-71
2023/03/24 03:43:59;;;;;;;5.30;2.13;;;;;;;;;;4990365;28;20046;-70
2023/03/24 03:46:25;;;;;;;4.72;2.30;;;;;;;;;;4990661;28;20026;-71
2023/03/24 03:48:52;;;;;;;5.38;2.05;;;;;;;;;;4990737;28;20105;-71
2023/03/24 03:51:17;;;;;;;4.63;2.20;;;;;;;;;;4990553;28;20027;-70
2023/03/24 03:53:57;;;;;;;4.13;2.17;;;;;;;;;;4990372;28;20453;-70
2023/03/24 03:56:26;;;;;;;4.80;2.30;;;;;;;;;;4990501;28;20040;-69
2023/03/24 03:58:52;;;;;;;4.13;2.05;;;;;;;;;;4990392;28;20482;-69
2023/03/24 04:01:24;;;;;;;5.60;2.22;;;;;;;;;;4990423;28;20027;-71
2023/03/24 04:04:10;;;;;;;5.68;2.22;;;;;;;;;;4990365;28;20097;-71
2023/03/24 04:07:09;;;;;;;3.47;2.00;;;;;;;;;;4994212;28;20026;-70
2023/03/24 04:09:53;;;;;;;4.22;2.00;;;;;;;;;;4994381;28;20038;-71
2023/03/24 04:12:21;;;;;;;4.13;1.90;;;;;;;;;;4994280;28;20014;-69
2023/03/24 04:14:49;;;;;;;4.07;1.90;;;;;;;;;;4993852;28;20038;-70
2023/03/24 04:17:33;;;;;;;3.72;1.75;;;;;;;;;;4994349;28;20486;-70
2023/03/24 04:20:13;;;;;;;4.43;1.90;;;;;;;;;;4994004;28;20034;-70
2023/03/24 04:23:08;;;;;;;3.83;2.20;;;;;;;;;;4993793;28;20026;-70
2023/03/24 04:25:48;;;;;;;4.68;2.03;;;;;;;;;;4994302;28;20030;-70
2023/03/24 04:28:37;;;;;;;4.82;2.03;;;;;;;;;;4993987;28;20034;-70
2023/03/24 04:31:13;;;;;;;4.63;2.00;;;;;;;;;;4994008;28;20707;-69
2023/03/24 04:33:39;;;;;;;3.72;2.00;;;;;;;;;;4993583;28;20490;-70
2023/03/24 04:36:17;;;;;;;5.03;2.20;;;;;;;;;;4993718;28;20034;-70
2023/03/24 04:38:49;;;;;;;5.10;2.00;;;;;;;;;;4993699;28;20045;-71
2023/03/24 04:41:16;;;;;;;3.30;2.17;;;;;;;;;;4995679;28;20233;-71
2023/03/24 04:43:43;;;;;;;4.15;2.10;;;;;;;;;;4995081;28;20034;-70
2023/03/24 04:46:09;;;;;;;4.80;2.42;;;;;;;;;;4997227;28;20022;-70
2023/03/24 04:48:35;;;;;;;6.30;2.60;;;;;;;;;;4995723;28;20504;-72
2023/03/24 04:51:02;;;;;;;4.95;2.75;;;;;;;;;;4993273;28;20528;-71
2023/03/24 04:53:28;;;;;;;5.22;2.95;;;;;;;;;;4993058;28;20422;-72
2023/03/24 04:56:11;;;;;;;6.22;2.70;;;;;;;;;;4993547;28;20478;-70
2023/03/24 04:58:37;;;;;;;6.57;2.85;;;;;;;;;;4993283;28;20061;-74
2023/03/24 05:01:04;;;;;;;8.30;3.00;;;;;;;;;;4993455;28;20057;-70
2023/03/24 05:03:30;;;;;;;5.30;2.80;;;;;;;;;;4993055;28;20026;-70
2023/03/24 05:05:58;;;;;;;6.10;2.88;;;;;;;;;;4993154;28;20219;-69
2023/03/24 05:08:23;;;;;;;4.70;2.80;;;;;;;;;;4975708;28;20041;-70
2023/03/24 05:10:48;;;;;;;4.43;2.50;;;;;;;;;;4993038;28;20026;-69
2023/03/24 05:13:15;;;;;;;5.75;3.13;;;;;;;;;;4992935;28;20042;-72
2023/03/24 05:15:40;;;;;;;5.55;2.88;;;;;;;;;;4992334;28;20037;-70
2023/03/24 05:18:06;;;;;;;6.82;3.22;;;;;;;;;;4993183;28;20087;-70
2023/03/24 05:20:32;;;;;;;4.70;2.90;;;;;;;;;;4993021;28;20457;-70
2023/03/24 05:22:57;;;;;;;7.43;3.25;;;;;;;;;;4992853;28;20070;-72
2023/03/24 05:25:23;;;;;;;9.13;3.40;;;;;;;;;;4992731;28;20023;-70
2023/03/24 05:27:48;;;;;;;8.00;3.10;;;;;;;;;;4992637;28;20057;-69
2023/03/24 05:30:15;;;;;;;6.43;4.03;;;;;;;;;;4992706;28;20027;-71
2023/03/24 05:32:40;;;;;;;6.80;3.10;;;;;;;;;;4992939;28;20053;-70
2023/03/24 05:35:06;;;;;;;6.85;3.33;;;;;;;;;;4992601;28;20109;-70
2023/03/24 05:37:32;;;;;;;5.32;3.30;;;;;;;;;;4975113;28;20177;-70
2023/03/24 05:39:57;;;;;;;5.82;3.20;;;;;;;;;;4992568;28;20035;-70
2023/03/24 05:42:23;;;;;;;6.95;3.88;;;;;;;;;;4992461;28;20026;-70
2023/03/24 05:44:48;;;;;;;8.35;4.50;;;;;;;;;;4992301;28;20034;-70
2023/03/24 05:47:15;;;;;;;6.07;3.58;;;;;;;;;;4975164;28;20419;-70
2023/03/24 05:49:44;;;;;;;8.35;3.28;;;;;;;;;;4992650;28;20022;-70
2023/03/24 05:52:10;;;;;;;7.28;3.67;;;;;;;;;;4996027;28;20666;-70
2023/03/24 05:54:35;;;;;;;8.82;3.95;;;;;;;;;;4992897;28;20137;-70
2023/03/24 05:57:02;;;;;;;8.05;3.55;;;;;;;;;;4994411;28;20019;-70
2023/03/24 05:59:28;;;;;;;9.65;4.00;;;;;;;;;;4992064;28;20026;-70
2023/03/24 06:01:55;;;;;;;9.00;3.67;;;;;;;;;;4992261;28;20053;-70
2023/03/24 06:04:22;;;;;;;6.95;3.47;;;;;;;;;;4991827;28;20113;-70
2023/03/24 06:06:48;;;;;;;6.40;3.75;;;;;;;;;;4992042;28;20018;-70
2023/03/24 06:09:15;;;;;;;6.97;3.85;;;;;;;;;;4992126;28;20037;-70
2023/03/24 06:11:42;;;;;;;7.53;3.58;;;;;;;;;;4992205;28;20022;-70
2023/03/24 06:14:07;;;;;;;8.25;3.55;;;;;;;;;;4992027;28;20556;-71
2023/03/24 06:16:37;;;;;;;9.23;3.67;;;;;;;;;;4991947;28;20022;-70
2023/03/24 06:19:05;;;;;;;7.63;3.80;;;;;;;;;;4991743;28;20030;-70
2023/03/24 06:21:31;;;;;;;6.72;3.47;;;;;;;;;;4995239;28;20065;-70
2023/03/24 06:23:57;;;;;;;9.75;3.50;;;;;;;;;;4991607;28;20490;-73
2023/03/24 06:26:22;;;;;;;6.90;3.65;;;;;;;;;;4991934;28;20114;-72
2023/03/24 06:28:50;;;;;;;10.52;3.92;;;;;;;;;;4991618;28;20390;-71
2023/03/24 06:31:18;;;;;;;7.25;3.80;;;;;;;;;;4991739;28;20023;-71
2023/03/24 06:33:45;;;;;;;5.90;3.50;;;;;;;;;;4991494;28;20030;-72
2023/03/24 06:36:11;;;;;;;6.60;3.50;;;;;;;;;;4991512;28;20022;-71
2023/03/24 06:38:37;;;;;;;6.65;3.40;;;;;;;;;;4991310;28;20019;-70
2023/03/24 06:41:03;;;;;;;7.75;4.07;;;;;;;;;;4991301;28;20030;-70
2023/03/24 06:43:30;;;;;;;9.45;3.53;;;;;;;;;;4991436;28;20105;-71
2023/03/24 06:45:56;;;;;;;6.85;4.00;;;;;;;;;;4991539;28;20029;-71
2023/03/24 06:48:21;;;;;;;5.43;3.55;;;;;;;;;;4991476;28;20138;-72
2023/03/24 06:50:47;;;;;;;7.75;3.70;;;;;;;;;;4991157;28;20035;-75
2023/03/24 06:53:12;;;;;;;11.15;3.90;;;;;;;;;;4990996;28;20065;-70
2023/03/24 06:55:38;;;;;;;10.13;3.60;;;;;;;;;;4992244;28;20022;-72
2023/03/24 06:58:04;;;;;;;6.90;3.50;;;;;;;;;;4991121;28;20503;-70
2023/03/24 07:00:29;;;;;;;7.45;3.90;;;;;;;;;;4991121;28;20053;-70
2023/03/24 07:02:55;;;;;;;10.10;3.75;;;;;;;;;;4991143;28;20027;-70
2023/03/24 07:05:21;;;;;;;8.63;3.58;;;;;;;;;;4991024;28;20614;-73
2023/03/24 07:07:48;;;;;;;6.95;3.47;;;;;;;;;;4990887;28;20398;-70
2023/03/24 07:10:14;;;;;;;7.05;3.80;;;;;;;;;;4990917;28;20033;-71
2023/03/24 07:12:40;;;;;;;7.43;3.30;;;;;;;;;;4990969;28;20323;-70
2023/03/24 07:15:07;;;;;;;7.90;3.60;;;;;;;;;;4990716;28;20023;-71
2023/03/24 07:17:33;;;;;;;7.35;3.15;;;;;;;;;;4990908;28;20026;-70
2023/03/24 07:19:58;;;;;;;7.20;3.25;;;;;;;;;;4991013;28;20363;-70
2023/03/24 07:22:24;;;;;;;8.18;4.15;;;;;;;;;;4990736;28;20026;-74
2023/03/24 07:24:49;;;;;;;6.47;3.33;;;;;;;;;;4994647;28;20031;-75
2023/03/24 07:27:15;;;;;;;7.38;3.17;;;;;;;;;;4990695;28;20026;-70
2023/03/24 07:29:40;;;;;;;9.70;3.20;;;;;;;;;;4990652;28;20183;-70
2023/03/24 07:32:06;;;;;;;8.77;3.22;;;;;;;;;;4990783;28;20053;-70
2023/03/24 07:34:32;;;;;;;6.20;3.28;;;;;;;;;;4990516;28;20030;-70
2023/03/24 07:36:58;;;;;;;8.35;3.20;;;;;;;;;;4990553;28;20055;-71
2023/03/24 07:39:23;;;;;;;7.30;3.13;;;;;;;;;;4991606;28;20127;-70
2023/03/24 07:41:48;;;;;;;8.23;3.30;;;;;;;;;;4994909;28;20026;-70
2023/03/24 07:44:14;;;;;;;8.20;3.50;;;;;;;;;;4994699;28;20031;-70
2023/03/24 07:46:40;;;;;;;7.15;3.08;;;;;;;;;;4994723;28;20073;-69
2023/03/24 07:49:05;;;;;;;4.90;3.00;;;;;;;;;;4994476;28;20037;-69
2023/03/24 07:51:31;;;;;;;6.13;3.17;;;;;;;;;;4994368;28;20030;-69
2023/03/24 07:53:56;;;;;;;7.18;3.20;;;;;;;;;;4994521;28;20053;-70
2023/03/24 07:56:22;;;;;;;6.78;3.10;;;;;;;;;;4994548;28;20029;-70
2023/03/24 07:58:48;;;;;;;6.72;3.08;;;;;;;;;;4996644;28;20022;-70
2023/03/24 08:01:14;;;;;;;6.88;3.00;;;;;;;;;;4994399;28;20034;-72
2023/03/24 08:03:40;;;;;;;7.97;3.10;;;;;;;;;;4994442;28;20074;-70
2023/03/24 08:06:07;;;;;;;6.55;2.90;;;;;;;;;;4993796;28;20053;-70
2023/03/24 08:08:33;;;;;;;6.20;3.30;;;;;;;;;;4999895;28;20034;-71
2023/03/24 08:10:58;;;;;;;6.95;2.80;;;;;;;;;;5003363;28;20329;-71
2023/03/24 08:13:25;;;;;;;6.10;2.85;;;;;;;;;;5010342;28;20155;-70
2023/03/24 08:15:52;;;;;;;5.93;2.72;;;;;;;;;;5003572;28;20019;-70
2023/03/24 08:18:19;;;;;;;7.47;2.95;;;;;;;;;;5024348;28;20030;-75
2023/03/24 08:20:45;;;;;;;5.80;2.97;;;;;;;;;;5011798;28;20043;-75
2023/03/24 08:23:10;;;;;;;6.05;2.75;;;;;;;;;;5005021;28;20337;-75
2023/03/24 08:25:36;;;;;;;5.75;2.97;;;;;;;;;;5004668;28;20109;-73
2023/03/24 08:28:02;;;;;;;5.13;2.63;;;;;;;;;;5003518;28;20030;-74
2023/03/24 08:30:27;;;;;;;6.45;2.80;;;;;;;;;;5004409;28;20034;-74
2023/03/24 08:32:55;;;;;;;6.63;2.50;;;;;;;;;;5004571;28;20026;-73
2023/03/24 08:35:23;;;;;;;7.60;2.80;;;;;;;;;;5004910;28;20034;-74
2023/03/24 08:37:50;;;;;;;5.60;2.80;;;;;;;;;;5004670;28;20323;-74
2023/03/24 08:40:19;;;;;;;5.72;2.83;;;;;;;;;;5004804;28;20030;-72
2023/03/24 08:42:48;;;;;;;7.18;2.80;;;;;;;;;;5003615;28;20207;-73
2023/03/24 08:45:15;;;;;;;6.47;2.88;;;;;;;;;;4989554;28;20337;-70
2023/03/24 08:47:40;;;;;;;6.35;2.50;;;;;;;;;;4988137;28;20309;-71
2023/03/24 08:50:08;;;;;;;6.40;2.58;;;;;;;;;;5004661;28;20030;-71
2023/03/24 08:52:34;;;;;;;6.57;2.42;;;;;;;;;;5001234;28;20065;-71
2023/03/24 08:55:00;;;;;;;6.95;2.70;;;;;;;;;;5022836;28;20032;-71
2023/03/24 08:57:25;;;;;;;7.35;2.85;;;;;;;;;;5024054;28;20028;-72
2023/03/24 08:59:51;;;;;;;6.07;2.55;;;;;;;;;;5024008;28;20119;-71
2023/03/24 09:02:16;;;;;;;5.90;2.47;;;;;;;;;;5023914;28;20030;-71
2023/03/24 09:04:42;;;;;;;8.23;2.67;;;;;;;;;;5023923;28;20053;-71
2023/03/24 09:07:08;;;;;;;6.30;2.63;;;;;;;;;;5023584;28;20022;-72
2023/03/24 09:09:34;;;;;;;4.80;2.38;;;;;;;;;;5023789;28;20099;-72
2023/03/24 09:11:59;;;;;;;4.57;2.30;;;;;;;;;;5023939;28;20038;-72
2023/03/24 09:14:26;;;;;;;5.47;2.45;;;;;;;;;;5005214;28;20030;-74
2023/03/24 09:16:51;;;;;;;4.57;2.20;;;;;;;;;;5002992;28;20022;-72
2023/03/24 09:19:17;;;;;;;6.55;2.45;;;;;;;;;;5003517;28;20038;-71
2023/03/24 09:21:45;;;;;;;4.78;2.40;;;;;;;;;;5002563;28;20056;-69
2023/03/24 09:24:11;;;;;;;4.45;2.47;;;;;;;;;;5002658;28;20210;-73
2023/03/24 09:26:36;;;;;;;6.35;2.35;;;;;;;;;;5003283;28;20309;-73
2023/03/24 09:29:02;;;;;;;6.55;3.00;;;;;;;;;;5003306;28;20057;-72
2023/03/24 09:31:27;;;;;;;5.28;2.50;;;;;;;;;;5001814;28;20018;-70
2023/03/24 09:33:53;;;;;;;8.60;3.00;;;;;;;;;;4991008;28;20054;-74
2023/03/24 09:36:18;;;;;;;6.68;2.80;;;;;;;;;;4992061;28;20037;-75
2023/03/24 09:38:43;;;;;;;6.68;2.88;;;;;;;;;;5000215;28;20045;-77
2023/03/24 09:41:18;;;;;;;5.95;2.97;;;;;;;;;;4992991;28;20026;-78
2023/03/24 09:43:55;;;;;;;6.38;2.90;;;;;;;;;;4994823;28;20494;-76
2023/03/24 09:46:30;;;;;;;8.25;2.97;;;;;;;;;;4992492;28;20022;-73
2023/03/24 09:48:56;;;;;;;7.57;2.70;;;;;;;;;;4992752;28;20022;-76
2023/03/24 09:51:27;;;;;;;7.80;2.63;;;;;;;;;;4993026;28;20114;-70
2023/03/24 09:54:21;;;;;;;;;;;;;;;;;;4994469;28;20066;-65
2023/03/24 09:56:47;;;;;;;5.45;2.80;;;;;;;;;;4996753;28;19969;-75
2023/03/24 09:59:30;;;;;;;6.45;3.20;;;;;;;;;;4998867;28;20041;-72
2023/03/24 10:01:57;;;;;;;7.55;3.03;;;;;;;;;;4996177;28;20022;-81
2023/03/24 10:04:25;;;;;;;6.55;3.05;;;;;;;;;;4993376;28;20122;-82
2023/03/24 10:07:21;;;;;;;5.38;3.00;;;;;;;;;;4990430;28;20058;-71
2023/03/24 10:09:56;;;;;;;5.50;2.95;;;;;;;;;;4991666;28;20033;-71
2023/03/24 10:12:22;;;;;;;6.20;3.13;;;;;;;;;;4991719;28;20363;-70
2023/03/24 10:14:56;;;;;;;5.88;3.13;;;;;;;;;;4991653;28;20088;-73
2023/03/24 10:17:32;;;;;;;6.18;2.92;;;;;;;;;;4991507;28;20060;-74
2023/03/24 10:20:14;;;;;;;5.13;2.80;;;;;;;;;;4991966;28;20034;-72
2023/03/24 10:22:42;;;;;;;4.82;2.40;;;;;;;;;;4991770;28;20022;-70
2023/03/24 10:25:20;;;;;;;4.55;2.13;;;;;;;;;;4991397;28;20057;-71
2023/03/24 10:27:47;;;;;;;6.20;2.40;;;;;;;;;;4990199;28;20548;-71
2023/03/24 10:30:26;;;;;;;4.53;2.30;;;;;;;;;;4991630;28;20704;-72
2023/03/24 10:32:53;;;;;;;5.05;2.08;;;;;;;;;;4991778;28;20505;-70
2023/03/24 10:35:26;;;;;;;4.03;2.10;;;;;;;;;;4991706;28;20026;-71
2023/03/24 10:37:56;;;;;;;7.97;2.03;;;;;;;;;;4991341;28;20049;-70
2023/03/24 10:40:26;;;;;;;3.88;2.25;;;;;;;;;;4991463;28;20034;-70
2023/03/24 10:42:51;;;;;;;7.78;2.40;;;;;;;;;;4974346;28;20034;-70
2023/03/24 10:45:33;;;;;;;5.28;2.25;;;;;;;;;;4991318;28;20032;-71
2023/03/24 10:48:01;;;;;;;6.05;1.65;;;;;;;;;;4991087;28;20037;-71
2023/03/24 10:50:28;;;;;;;3.72;1.70;;;;;;;;;;4991664;28;20105;-70
2023/03/24 10:52:54;;;;;;;4.18;1.63;;;;;;;;;;4991026;28;20457;-70
2023/03/24 10:55:23;;;;;;;4.05;1.60;;;;;;;;;;4991304;28;20470;-71
2023/03/24 10:57:52;;;;;;;3.60;1.60;;;;;;;;;;4973550;28;20030;-70
2023/03/24 11:00:31;;;;;;;4.65;1.60;;;;;;;;;;4990046;28;20038;-70
2023/03/24 11:03:02;;;;;;;5.05;1.90;;;;;;;;;;4973444;28;20498;-70
2023/03/24 11:05:32;;;;;;;3.97;1.60;;;;;;;;;;4990877;28;20053;-70
2023/03/24 11:08:17;;;;;;;3.75;1.33;;;;;;;;;;4990717;28;20512;-72
2023/03/24 11:10:43;;;;;;;2.40;1.38;;;;;;;;;;4991251;28;20042;-70
2023/03/24 11:13:18;;;;;;;3.90;1.60;;;;;;;;;;4990913;28;20398;-71
2023/03/24 11:16:14;;;;;;;3.22;1.40;;;;;;;;;;4990480;28;20050;-71
2023/03/24 11:19:02;;;;;;;3.03;1.23;;;;;;;;;;4984344;28;20041;-71
2023/03/24 11:21:30;;;;;;;2.60;1.20;;;;;;;;;;4990724;28;20022;-70
2023/03/24 11:24:00;;;;;;;4.20;1.52;;;;;;;;;;4990776;28;20057;-70
2023/03/24 11:26:32;;;;;;;5.35;1.63;;;;;;;;;;4990695;28;20069;-70
2023/03/24 11:29:02;;;;;;;2.50;1.38;;;;;;;;;;4990884;28;20114;-70
2023/03/24 11:31:30;;;;;;;2.80;1.30;;;;;;;;;;4990988;28;20036;-70
2023/03/24 11:34:10;;;;;;;4.38;1.40;;;;;;;;;;4990825;28;20026;-69
2023/03/24 11:36:47;;;;;;;3.45;1.40;;;;;;;;;;4990236;28;20026;-70
2023/03/24 11:39:20;;;;;;;2.67;1.30;;;;;;;;;;4990607;28;20097;-70
2023/03/24 11:42:11;;;;;;;3.45;1.20;;;;;;;;;;4990604;28;20482;-71
2023/03/24 11:44:36;;;;;;;3.25;1.27;;;;;;;;;;4990672;28;20073;-70
2023/03/24 11:47:09;;;;;;;2.47;0.95;;;;;;;;;;4990331;28;20054;-70
2023/03/24 11:49:43;;;;;;;3.03;1.30;;;;;;;;;;4990700;28;20038;-70
2023/03/24 11:52:20;;;;;;;2.67;1.38;;;;;;;;;;4990211;28;20057;-70
2023/03/24 11:54:46;;;;;;;2.45;1.35;;;;;;;;;;4990539;28;20023;-70
2023/03/24 11:57:16;;;;;;;3.13;1.27;;;;;;;;;;4990207;28;20285;-70
2023/03/24 11:59:51;;;;;;;4.40;1.27;;;;;;;;;;4990518;28;20433;-74
2023/03/24 12:02:39;;;;;;;4.13;1.23;;;;;;;;;;4973014;28;20038;-70
2023/03/24 12:05:30;;;;;;;5.72;1.60;;;;;;;;;;4990330;28;20034;-70
2023/03/24 12:07:55;;;;;;;;;;;;;;;;;;4990722;28;20058;-69
2023/03/24 12:10:44;;;;;;;5.00;1.40;;;;;;;;;;4990435;28;19957;-74
2023/03/24 12:13:14;;;;;;;2.60;1.05;;;;;;;;;;4990187;28;20282;-71
2023/03/24 12:15:42;;;;;;;3.45;1.20;;;;;;;;;;4990388;28;20034;-70
2023/03/24 12:18:26;;;;;;;6.60;1.38;;;;;;;;;;4990226;28;20031;-70
2023/03/24 12:21:04;;;;;;;4.10;1.50;;;;;;;;;;4990315;28;20041;-71
2023/03/24 12:23:45;;;;;;;4.00;1.50;;;;;;;;;;4990327;28;20117;-70
2023/03/24 12:26:22;;;;;;;4.72;1.40;;;;;;;;;;4992503;28;20019;-72
2023/03/24 12:29:15;;;;;;;5.75;1.50;;;;;;;;;;4993804;28;20527;-71
2023/03/24 12:32:04;;;;;;;4.28;1.90;;;;;;;;;;4993754;28;20042;-73
2023/03/24 12:34:42;;;;;;;6.32;1.98;;;;;;;;;;4993750;28;20030;-70
2023/03/24 12:37:26;;;;;;;5.55;2.05;;;;;;;;;;4993553;28;20034;-71
2023/03/24 12:40:09;;;;;;;6.35;2.10;;;;;;;;;;4993741;28;20041;-71
2023/03/24 12:42:40;;;;;;;5.32;2.30;;;;;;;;;;4993704;28;20041;-73
2023/03/24 12:45:34;;;;;;;6.63;1.95;;;;;;;;;;4993658;28;20026;-74
2023/03/24 12:48:35;;;;;;;5.15;2.05;;;;;;;;;;4993181;28;20101;-70
2023/03/24 12:51:09;;;;;;;4.15;1.88;;;;;;;;;;4993330;28;20104;-75
2023/03/24 12:53:46;;;;;;;6.03;2.00;;;;;;;;;;4993089;28;20042;-70
2023/03/24 12:56:21;;;;;;;5.65;2.05;;;;;;;;;;4993351;28;20513;-70
2023/03/24 12:58:50;;;;;;;8.95;2.00;;;;;;;;;;4991945;28;20056;-70
2023/03/24 13:01:30;;;;;;;7.25;1.88;;;;;;;;;;4993379;28;20030;-70
2023/03/24 13:04:05;;;;;;;;;;;;;;;;;;4993628;28;20026;-71
2023/03/24 13:06:46;;;;;;;4.38;1.77;;;;;;;;;;4992739;28;20281;-71
2023/03/24 13:09:24;;;;;;;6.95;2.10;;;;;;;;;;4993069;28;20058;-70
2023/03/24 13:11:59;;;;;;;4.25;1.70;;;;;;;;;;4993219;28;20096;-73
2023/03/24 13:14:45;;;;;;;8.50;2.10;;;;;;;;;;4993075;28;20076;-70
2023/03/24 13:17:19;;;;;;;7.85;2.03;;;;;;;;;;4992948;28;20038;-70
2023/03/24 13:19:45;;;;;;;5.13;1.70;;;;;;;;;;4992856;28;20026;-73
2023/03/24 13:22:16;;;;;;;7.85;1.70;;;;;;;;;;4992810;28;20030;-70
2023/03/24 13:24:44;;;;;;;5.68;1.58;;;;;;;;;;4992754;28;20069;-71
2023/03/24 13:27:23;;;;;;;6.40;1.70;;;;;;;;;;4992533;28;20056;-74
2023/03/24 13:30:35;;;;;;;5.90;2.00;;;;;;;;;;4992917;28;20034;-70
2023/03/24 13:33:11;;;;;;;5.55;1.88;;;;;;;;;;4913339;29;20036;-72
2023/03/24 13:36:07;;;;;;;6.63;2.08;;;;;;;;;;4981437;28;20046;-73
2023/03/24 13:38:47;;;;;;;4.88;1.80;;;;;;;;;;4991690;28;20513;-74
2023/03/24 13:41:25;;;;;;;4.95;1.40;;;;;;;;;;4992347;28;20026;-71
2023/03/24 13:44:14;;;;;;;5.30;1.30;;;;;;;;;;4992477;28;20030;-73
2023/03/24 13:46:40;;;;;;;7.03;1.90;;;;;;;;;;4992644;28;20389;-71
2023/03/24 13:49:12;;;;;;;6.50;1.80;;;;;;;;;;4992435;28;20124;-73
2023/03/24 13:51:43;;;;;;;7.55;1.60;;;;;;;;;;4992495;28;20033;-74
2023/03/24 13:54:24;;;;;;;6.55;1.80;;;;;;;;;;4992278;28;20038;-70
2023/03/24 13:57:13;;;;;;;6.70;1.60;;;;;;;;;;4992297;28;20055;-70
2023/03/24 14:00:10;;;;;;;4.45;1.77;;;;;;;;;;4992183;28;20034;-70
2023/03/24 14:03:15;;;;;;;6.72;2.10;;;;;;;;;;4992239;28;20095;-70
2023/03/24 14:06:00;;;;;;;7.07;1.98;;;;;;;;;;4976135;28;20494;-70
2023/03/24 14:08:42;;;;;;;6.85;2.08;;;;;;;;;;4991812;28;20053;-70
2023/03/24 14:11:40;;;;;;;4.57;1.88;;;;;;;;;;4990859;28;20455;-69
2023/03/24 14:14:13;;;;;;;5.15;1.60;;;;;;;;;;4992141;28;20033;-69
2023/03/24 14:17:15;;;;;;;5.13;1.40;;;;;;;;;;4991582;28;20110;-75
2023/03/24 14:19:43;;;;;;;4.80;1.10;;;;;;;;;;4991565;28;20081;-70
2023/03/24 14:22:14;;;;;;;6.60;1.20;;;;;;;;;;4991538;28;20053;-71
2023/03/24 14:24:45;;;;;;;6.65;1.15;;;;;;;;;;4991864;28;20026;-71
2023/03/24 14:27:31;;;;;;;6.90;1.23;;;;;;;;;;4991688;28;20076;-74
2023/03/24 14:30:01;;;;;;;3.72;1.10;;;;;;;;;;4991846;28;20030;-71
2023/03/24 14:32:27;;;;;;;6.20;1.00;;;;;;;;;;4991599;28;20022;-71
2023/03/24 14:34:58;;;;;;;3.25;1.05;;;;;;;;;;4991529;28;20034;-75
2023/03/24 14:37:26;;;;;;;4.63;1.00;;;;;;;;;;4992204;28;20110;-75
2023/03/24 14:39:56;;;;;;;3.05;1.17;;;;;;;;;;4992196;28;20161;-81
2023/03/24 14:42:47;;;;;;;1.90;0.88;;;;;;;;;;4991035;28;20169;-73
2023/03/24 14:45:40;;;;;;;4.25;0.90;;;;;;;;;;4991689;28;20022;-73
2023/03/24 14:48:26;;;;;;;3.95;1.00;;;;;;;;;;4991203;28;20482;-71
2023/03/24 14:50:53;;;;;;;2.28;0.80;;;;;;;;;;4991161;28;20695;-71
2023/03/24 14:53:19;;;;;;;2.60;0.73;;;;;;;;;;4991108;28;20050;-74
2023/03/24 14:55:47;;;;;;;4.22;0.90;;;;;;;;;;4991242;28;20060;-79
2023/03/24 14:58:29;;;;;;;4.47;0.90;;;;;;;;;;4991183;28;20054;-71
2023/03/24 15:00:59;;;;;;;5.03;1.00;;;;;;;;;;4991443;28;20514;-70
2023/03/24 15:03:36;;;;;;;4.68;0.98;;;;;;;;;;4974144;28;20022;-78
2023/03/24 15:06:14;;;;;;;3.90;1.00;;;;;;;;;;4991063;28;20038;-72
2023/03/24 15:08:44;;;;;;;2.75;1.02;;;;;;;;;;4990839;28;20034;-75
2023/03/24 15:11:10;;;;;;;4.47;1.13;;;;;;;;;;4990824;28;20045;-73
2023/03/24 15:13:42;;;;;;;6.00;1.08;;;;;;;;;;4990980;28;20278;-74